createdAt,value
2017-08-10T00:03:11.690Z,0
2017-08-10T00:03:52.146Z,0
2017-08-10T00:04:32.634Z,0
2017-08-10T00:05:13.175Z,0
2017-08-10T00:05:53.663Z,0
2017-08-10T00:06:34.144Z,0
2017-08-10T00:07:14.662Z,0
2017-08-10T00:09:26.643Z,0
2017-08-10T00:10:07.104Z,0
2017-08-10T00:10:47.613Z,0
2017-08-10T00:11:28.513Z,0
2017-08-10T00:12:09.047Z,0
2017-08-10T00:12:50.425Z,0
2017-08-10T00:13:30.829Z,0
2017-08-10T00:14:11.336Z,0
2017-08-10T00:14:51.840Z,0
2017-08-10T00:15:32.656Z,0
2017-08-10T00:16:13.129Z,0
2017-08-10T00:16:54.062Z,0
2017-08-10T00:17:34.500Z,0
2017-08-10T00:18:15.307Z,0
2017-08-10T00:18:55.606Z,0
2017-08-10T00:19:36.082Z,0
2017-08-10T00:20:16.595Z,0
2017-08-10T00:20:57.016Z,0
2017-08-10T00:21:37.379Z,0
2017-08-10T00:22:17.828Z,0
2017-08-10T00:22:58.242Z,0
2017-08-10T00:23:38.830Z,0
2017-08-10T00:24:19.426Z,0
2017-08-10T00:24:59.924Z,0
2017-08-10T00:25:40.175Z,0
2017-08-10T00:26:20.632Z,0
2017-08-10T00:27:01.088Z,0
2017-08-10T00:27:41.706Z,0
2017-08-10T00:28:21.954Z,0
2017-08-10T00:29:02.414Z,0
2017-08-10T00:29:42.779Z,0
2017-08-10T00:30:23.161Z,0
2017-08-10T00:31:03.549Z,0
2017-08-10T00:31:44.345Z,0
2017-08-10T00:32:24.878Z,0
2017-08-10T00:33:05.279Z,0
2017-08-10T00:33:45.757Z,0
2017-08-10T00:34:26.124Z,0
2017-08-10T00:35:06.497Z,0
2017-08-10T00:35:46.904Z,0
2017-08-10T00:36:27.404Z,0
2017-08-10T00:37:07.822Z,0
2017-08-10T00:37:48.207Z,0
2017-08-10T00:38:28.661Z,0
2017-08-10T00:39:09.180Z,0
2017-08-10T00:39:50.015Z,0
2017-08-10T00:40:30.405Z,0
2017-08-10T00:41:10.820Z,0
2017-08-10T00:41:51.215Z,0
2017-08-10T00:42:31.673Z,0
2017-08-10T00:43:12.160Z,0
2017-08-10T00:43:52.510Z,0
2017-08-10T00:44:32.991Z,0
2017-08-10T00:45:13.516Z,0
2017-08-10T00:45:54.049Z,0
2017-08-10T00:46:34.434Z,0
2017-08-10T00:47:14.913Z,0
2017-08-10T00:47:55.344Z,0
2017-08-10T00:48:35.701Z,0
2017-08-10T00:49:16.137Z,0
2017-08-10T00:49:56.726Z,0
2017-08-10T00:50:36.930Z,0
2017-08-10T00:51:17.381Z,0
2017-08-10T00:51:57.723Z,0
2017-08-10T00:52:38.274Z,0
2017-08-10T00:53:18.569Z,0
2017-08-10T00:53:59.005Z,0
2017-08-10T00:54:39.406Z,0
2017-08-10T00:55:19.828Z,0
2017-08-10T00:56:00.271Z,0
2017-08-10T00:56:41.097Z,0
2017-08-10T00:57:21.910Z,0
2017-08-10T00:58:02.543Z,0
2017-08-10T00:58:43.132Z,0
2017-08-10T00:59:23.523Z,0
2017-08-10T01:00:04.397Z,0
2017-08-10T01:00:44.852Z,0
2017-08-10T01:01:25.267Z,0
2017-08-10T01:02:05.708Z,0
2017-08-10T01:02:46.132Z,0
2017-08-10T01:03:26.537Z,0
2017-08-10T01:04:08.357Z,0
2017-08-10T01:04:49.020Z,0
2017-08-10T01:05:29.665Z,0
2017-08-10T01:06:10.082Z,0
2017-08-10T01:06:50.628Z,0
2017-08-10T01:07:31.334Z,0
2017-08-10T01:08:11.738Z,0
2017-08-10T01:08:55.174Z,0
2017-08-10T01:09:35.480Z,0
2017-08-10T01:10:15.849Z,0
2017-08-10T01:10:56.356Z,0
2017-08-10T01:11:36.994Z,0
2017-08-10T01:12:17.351Z,0
2017-08-10T01:12:58.155Z,0
2017-08-10T01:13:38.491Z,0
2017-08-10T01:14:19.309Z,0
2017-08-10T01:15:00.933Z,0
2017-08-10T01:15:41.646Z,0
2017-08-10T01:16:23.611Z,0
2017-08-10T01:17:04.368Z,0
2017-08-10T01:17:45.263Z,0
2017-08-10T01:18:27.678Z,0
2017-08-10T01:22:19.718Z,0
2017-08-10T01:23:10.118Z,0
2017-08-10T01:23:50.514Z,0
2017-08-10T01:24:31.033Z,0
2017-08-10T01:25:11.467Z,0
2017-08-10T01:25:51.854Z,0
2017-08-10T01:26:32.297Z,0
2017-08-10T01:27:12.726Z,0
2017-08-10T01:27:53.056Z,0
2017-08-10T01:28:33.417Z,0
2017-08-10T01:29:13.961Z,0
2017-08-10T01:29:54.268Z,0
2017-08-10T01:30:34.707Z,0
2017-08-10T01:31:15.126Z,0
2017-08-10T01:31:55.569Z,0
2017-08-10T01:32:35.906Z,0
2017-08-10T01:33:16.314Z,0
2017-08-10T01:33:56.722Z,0
2017-08-10T01:34:37.171Z,0
2017-08-10T01:35:17.536Z,0
2017-08-10T01:35:57.929Z,0
2017-08-10T01:36:38.305Z,0
2017-08-10T01:37:18.752Z,0
2017-08-10T01:37:59.149Z,0
2017-08-10T01:38:39.556Z,0
2017-08-10T01:39:20.059Z,0
2017-08-10T01:40:00.332Z,0
2017-08-10T01:40:40.796Z,0
2017-08-10T01:41:21.134Z,0
2017-08-10T01:42:01.576Z,0
2017-08-10T01:42:41.939Z,0
2017-08-10T01:43:22.381Z,0
2017-08-10T01:44:02.740Z,0
2017-08-10T01:44:43.182Z,0
2017-08-10T01:45:23.600Z,0
2017-08-10T01:46:03.985Z,0
2017-08-10T01:46:44.391Z,0
2017-08-10T01:47:24.767Z,0
2017-08-10T01:48:05.142Z,0
2017-08-10T01:48:45.563Z,0
2017-08-10T01:49:25.911Z,0
2017-08-10T01:50:06.405Z,0
2017-08-10T01:50:46.766Z,0
2017-08-10T01:51:27.165Z,0
2017-08-10T01:52:07.557Z,0
2017-08-10T01:52:48.024Z,0
2017-08-10T01:53:28.376Z,0
2017-08-10T01:54:08.765Z,0
2017-08-10T01:54:49.182Z,0
2017-08-10T01:55:29.577Z,0
2017-08-10T01:56:09.928Z,0
2017-08-10T01:56:50.330Z,0
2017-08-10T01:57:30.751Z,0
2017-08-10T01:58:11.099Z,0
2017-08-10T01:58:51.516Z,0
2017-08-10T01:59:31.906Z,0
2017-08-10T02:00:12.313Z,0
2017-08-10T02:00:52.666Z,0
2017-08-10T02:01:33.069Z,0
2017-08-10T02:02:13.480Z,0
2017-08-10T02:02:53.876Z,0
2017-08-10T02:03:34.260Z,0
2017-08-10T02:04:14.699Z,0
2017-08-10T02:04:55.146Z,0
2017-08-10T02:05:35.589Z,0
2017-08-10T02:06:15.951Z,0
2017-08-10T02:06:56.336Z,0
2017-08-10T02:07:36.739Z,0
2017-08-10T02:08:17.169Z,0
2017-08-10T02:08:57.544Z,0
2017-08-10T02:09:37.970Z,0
2017-08-10T02:10:18.344Z,0
2017-08-10T02:10:58.792Z,0
2017-08-10T02:11:39.189Z,0
2017-08-10T02:12:19.648Z,0
2017-08-10T02:13:00.057Z,0
2017-08-10T02:13:40.466Z,0
2017-08-10T02:14:20.823Z,0
2017-08-10T02:15:01.229Z,0
2017-08-10T02:15:41.635Z,0
2017-08-10T02:16:22.039Z,0
2017-08-10T02:17:02.421Z,0
2017-08-10T02:17:42.827Z,0
2017-08-10T02:18:23.255Z,0
2017-08-10T02:19:03.636Z,0
2017-08-10T02:19:44.026Z,0
2017-08-10T02:20:24.442Z,0
2017-08-10T02:21:04.838Z,0
2017-08-10T02:21:45.257Z,0
2017-08-10T02:22:25.636Z,0
2017-08-10T02:23:06.017Z,0
2017-08-10T02:23:46.379Z,0
2017-08-10T02:24:26.818Z,0
2017-08-10T02:25:07.197Z,0
2017-08-10T02:25:47.575Z,0
2017-08-10T02:26:27.982Z,0
2017-08-10T02:27:08.380Z,0
2017-08-10T02:27:48.795Z,0
2017-08-10T02:28:29.198Z,0
2017-08-10T02:29:09.572Z,0
2017-08-10T02:29:49.945Z,0
2017-08-10T02:30:30.411Z,0
2017-08-10T02:31:10.771Z,0
2017-08-10T02:31:51.146Z,0
2017-08-10T02:32:31.606Z,0
2017-08-10T02:33:11.976Z,0
2017-08-10T02:33:52.387Z,0
2017-08-10T02:34:33.457Z,0
2017-08-10T02:35:13.870Z,0
2017-08-10T02:35:54.328Z,0
2017-08-10T02:36:34.701Z,0
2017-08-10T02:37:15.172Z,0
2017-08-10T02:37:55.576Z,0
2017-08-10T02:38:36.031Z,0
2017-08-10T02:39:16.478Z,0
2017-08-10T02:39:56.818Z,0
2017-08-10T02:40:37.280Z,0
2017-08-10T02:41:17.722Z,0
2017-08-10T02:41:58.119Z,0
2017-08-10T02:42:38.500Z,0
2017-08-10T02:43:18.877Z,0
2017-08-10T02:43:59.291Z,0
2017-08-10T02:44:39.665Z,0
2017-08-10T02:45:20.057Z,0
2017-08-10T02:46:00.455Z,0
2017-08-10T02:46:40.901Z,0
2017-08-10T02:47:21.308Z,0
2017-08-10T02:48:01.698Z,0
2017-08-10T02:48:42.134Z,0
2017-08-10T02:49:22.497Z,0
2017-08-10T02:50:02.861Z,0
2017-08-10T02:50:43.302Z,0
2017-08-10T02:51:23.712Z,0
2017-08-10T02:52:04.114Z,0
2017-08-10T02:52:44.530Z,0
2017-08-10T02:53:24.947Z,0
2017-08-10T02:54:05.342Z,0
2017-08-10T02:54:45.728Z,0
2017-08-10T02:55:26.139Z,0
2017-08-10T02:56:06.555Z,0
2017-08-10T02:56:46.981Z,0
2017-08-10T02:57:27.342Z,0
2017-08-10T02:58:07.801Z,0
2017-08-10T02:58:48.185Z,0
2017-08-10T02:59:28.581Z,0
2017-08-10T03:00:09.003Z,0
2017-08-10T03:00:49.423Z,0
2017-08-10T03:01:29.816Z,0
2017-08-10T03:02:10.210Z,0
2017-08-10T03:02:50.632Z,0
2017-08-10T03:03:31.083Z,0
2017-08-10T03:04:11.460Z,0
2017-08-10T03:04:51.909Z,0
2017-08-10T03:05:32.321Z,0
2017-08-10T03:06:12.690Z,0
2017-08-10T03:06:53.113Z,0
2017-08-10T03:07:33.521Z,0
2017-08-10T03:08:13.945Z,0
2017-08-10T03:08:54.346Z,0
2017-08-10T03:09:34.713Z,0
2017-08-10T03:10:15.124Z,0
2017-08-10T03:10:55.517Z,0
2017-08-10T03:11:35.891Z,0
2017-08-10T03:12:16.376Z,0
2017-08-10T03:12:56.743Z,0
2017-08-10T03:13:37.170Z,0
2017-08-10T03:14:17.551Z,0
2017-08-10T03:14:58.009Z,0
2017-08-10T03:15:38.369Z,0
2017-08-10T03:16:18.787Z,0
2017-08-10T03:16:59.357Z,0
2017-08-10T03:17:39.789Z,0
2017-08-10T03:18:20.210Z,0
2017-08-10T03:19:00.590Z,0
2017-08-10T03:19:41.002Z,0
2017-08-10T03:20:21.375Z,0
2017-08-10T03:21:01.746Z,0
2017-08-10T03:21:42.157Z,0
2017-08-10T03:22:22.549Z,0
2017-08-10T03:23:02.959Z,0
2017-08-10T03:23:43.373Z,0
2017-08-10T03:24:23.780Z,0
2017-08-10T03:25:04.193Z,0
2017-08-10T03:25:44.621Z,0
2017-08-10T03:26:25.006Z,0
2017-08-10T03:27:05.428Z,0
2017-08-10T03:27:45.883Z,0
2017-08-10T03:28:26.222Z,0
2017-08-10T03:29:06.588Z,0
2017-08-10T03:29:47.024Z,0
2017-08-10T03:30:27.402Z,0
2017-08-10T03:31:07.824Z,0
2017-08-10T03:31:48.201Z,0
2017-08-10T03:32:28.648Z,0
2017-08-10T03:33:09.059Z,0
2017-08-10T03:33:49.450Z,0
2017-08-10T03:34:29.870Z,0
2017-08-10T03:35:10.249Z,0
2017-08-10T03:35:50.659Z,0
2017-08-10T03:36:31.025Z,0
2017-08-10T03:37:11.428Z,0
2017-08-10T03:37:51.811Z,0
2017-08-10T03:38:32.232Z,0
2017-08-10T03:39:12.640Z,0
2017-08-10T03:39:53.172Z,0
2017-08-10T03:40:33.574Z,0
2017-08-10T03:41:13.943Z,0
2017-08-10T03:41:54.319Z,0
2017-08-10T03:42:34.721Z,0
2017-08-10T03:43:15.142Z,0
2017-08-10T03:43:55.527Z,0
2017-08-10T03:44:35.947Z,0
2017-08-10T03:45:16.333Z,0
2017-08-10T03:45:56.695Z,0
2017-08-10T03:46:37.105Z,0
2017-08-10T03:47:17.510Z,0
2017-08-10T03:47:57.929Z,0
2017-08-10T03:48:38.308Z,0
2017-08-10T03:49:18.722Z,0
2017-08-10T03:49:59.090Z,4
2017-08-10T03:50:39.517Z,4
2017-08-10T03:51:19.867Z,4
2017-08-10T03:52:00.263Z,4
2017-08-10T03:52:40.679Z,0
2017-08-10T03:53:21.081Z,4
2017-08-10T03:54:01.434Z,4
2017-08-10T03:54:41.886Z,4
2017-08-10T03:55:22.265Z,4
2017-08-10T03:56:02.687Z,8
2017-08-10T03:56:43.051Z,4
2017-08-10T03:57:23.483Z,4
2017-08-10T03:58:03.855Z,8
2017-08-10T03:58:44.271Z,8
2017-08-10T03:59:24.704Z,4
2017-08-10T04:00:05.085Z,8
2017-08-10T04:00:45.521Z,8
2017-08-10T04:01:25.876Z,12
2017-08-10T04:02:06.289Z,8
2017-08-10T04:02:46.664Z,12
2017-08-10T04:03:27.101Z,12
2017-08-10T04:04:07.526Z,12
2017-08-10T04:04:47.918Z,16
2017-08-10T04:05:28.353Z,16
2017-08-10T04:06:08.816Z,16
2017-08-10T04:06:49.233Z,20
2017-08-10T04:07:29.589Z,20
2017-08-10T04:08:09.961Z,24
2017-08-10T04:08:50.424Z,24
2017-08-10T04:09:30.805Z,28
2017-08-10T04:10:11.228Z,28
2017-08-10T04:10:51.630Z,28
2017-08-10T04:11:32.050Z,32
2017-08-10T04:12:12.556Z,32
2017-08-10T04:12:53.008Z,36
2017-08-10T04:13:33.539Z,40
2017-08-10T04:14:13.908Z,40
2017-08-10T04:14:54.324Z,40
2017-08-10T04:15:34.738Z,44
2017-08-10T04:16:15.136Z,44
2017-08-10T04:16:55.548Z,48
2017-08-10T04:17:36.013Z,48
2017-08-10T04:18:16.358Z,48
2017-08-10T04:18:56.797Z,56
2017-08-10T04:19:37.179Z,56
2017-08-10T04:20:17.630Z,60
2017-08-10T04:20:58.047Z,60
2017-08-10T04:21:38.465Z,68
2017-08-10T04:22:18.843Z,68
2017-08-10T04:22:59.305Z,72
2017-08-10T04:23:39.633Z,76
2017-08-10T04:24:20.064Z,80
2017-08-10T04:25:00.447Z,84
2017-08-10T04:25:40.885Z,92
2017-08-10T04:26:21.300Z,96
2017-08-10T04:27:01.665Z,96
2017-08-10T04:27:42.078Z,96
2017-08-10T04:28:22.534Z,100
2017-08-10T04:29:02.914Z,100
2017-08-10T04:29:43.264Z,104
2017-08-10T04:30:23.705Z,108
2017-08-10T04:31:04.158Z,108
2017-08-10T04:31:44.566Z,112
2017-08-10T04:32:24.928Z,116
2017-08-10T04:33:05.310Z,124
2017-08-10T04:33:45.737Z,132
2017-08-10T04:34:26.113Z,144
2017-08-10T04:35:06.529Z,152
2017-08-10T04:35:46.899Z,160
2017-08-10T04:36:27.352Z,176
2017-08-10T04:37:07.767Z,192
2017-08-10T04:37:48.118Z,208
2017-08-10T04:38:28.594Z,228
2017-08-10T04:39:08.970Z,244
2017-08-10T04:39:49.360Z,260
2017-08-10T04:40:29.796Z,276
2017-08-10T04:41:10.191Z,284
2017-08-10T04:41:50.629Z,288
2017-08-10T04:42:31.041Z,292
2017-08-10T04:43:11.429Z,292
2017-08-10T04:43:51.830Z,288
2017-08-10T04:44:32.205Z,288
2017-08-10T04:45:12.664Z,284
2017-08-10T04:45:53.084Z,284
2017-08-10T04:46:33.510Z,288
2017-08-10T04:47:13.922Z,288
2017-08-10T04:47:54.362Z,284
2017-08-10T04:48:34.713Z,284
2017-08-10T04:49:15.131Z,288
2017-08-10T04:49:55.556Z,288
2017-08-10T04:50:35.980Z,288
2017-08-10T04:51:16.358Z,288
2017-08-10T04:51:56.805Z,296
2017-08-10T04:52:37.243Z,300
2017-08-10T04:53:17.692Z,316
2017-08-10T04:53:58.065Z,328
2017-08-10T04:54:38.517Z,348
2017-08-10T04:55:18.884Z,364
2017-08-10T04:55:59.331Z,388
2017-08-10T04:56:39.717Z,400
2017-08-10T04:57:20.220Z,416
2017-08-10T04:58:00.625Z,436
2017-08-10T04:58:41.007Z,464
2017-08-10T04:59:21.457Z,492
2017-08-10T05:00:01.797Z,528
2017-08-10T05:00:42.254Z,572
2017-08-10T05:01:22.668Z,620
2017-08-10T05:02:03.048Z,668
2017-08-10T05:02:43.483Z,712
2017-08-10T05:03:23.891Z,748
2017-08-10T05:04:04.339Z,776
2017-08-10T05:04:44.697Z,800
2017-08-10T05:05:25.104Z,816
2017-08-10T05:06:05.493Z,828
2017-08-10T05:06:46.029Z,844
2017-08-10T05:07:26.388Z,860
2017-08-10T05:08:06.817Z,884
2017-08-10T05:08:47.193Z,912
2017-08-10T05:09:27.641Z,940
2017-08-10T05:10:08.031Z,968
2017-08-10T05:10:48.459Z,996
2017-08-10T05:12:46.381Z,1096
2017-08-10T05:13:26.762Z,1160
2017-08-10T05:14:07.210Z,1240
2017-08-10T05:14:47.569Z,1332
2017-08-10T05:15:28.018Z,1428
2017-08-10T05:16:08.410Z,1524
2017-08-10T05:16:49.020Z,1624
2017-08-10T05:17:29.592Z,1724
2017-08-10T05:18:10.016Z,1812
2017-08-10T05:18:50.373Z,1884
2017-08-10T05:19:30.789Z,1932
2017-08-10T05:20:11.163Z,1964
2017-08-10T05:20:51.565Z,1980
2017-08-10T05:21:31.992Z,1996
2017-08-10T05:22:12.447Z,2016
2017-08-10T05:22:52.955Z,2028
2017-08-10T05:23:33.272Z,2008
2017-08-10T05:24:13.743Z,1972
2017-08-10T05:24:54.235Z,1916
2017-08-10T05:25:34.636Z,1864
2017-08-10T05:26:15.021Z,1828
2017-08-10T05:26:55.474Z,1820
2017-08-10T05:27:35.821Z,1840
2017-08-10T05:28:16.283Z,1880
2017-08-10T05:28:56.656Z,1908
2017-08-10T05:29:37.155Z,1892
2017-08-10T05:30:17.586Z,1836
2017-08-10T05:30:57.995Z,1736
2017-08-10T05:31:38.462Z,1624
2017-08-10T05:32:18.872Z,1524
2017-08-10T05:32:59.203Z,1448
2017-08-10T05:33:39.647Z,1400
2017-08-10T05:34:20.029Z,1380
2017-08-10T05:35:00.414Z,1376
2017-08-10T05:35:40.964Z,1372
2017-08-10T05:36:21.334Z,1368
2017-08-10T05:37:01.750Z,1356
2017-08-10T05:37:42.161Z,1320
2017-08-10T05:38:22.588Z,1276
2017-08-10T05:39:02.980Z,1240
2017-08-10T05:39:43.515Z,1212
2017-08-10T05:40:24.005Z,1196
2017-08-10T05:41:04.739Z,1200
2017-08-10T05:41:45.169Z,1208
2017-08-10T05:42:25.544Z,1216
2017-08-10T05:43:05.884Z,1232
2017-08-10T05:43:46.324Z,1244
2017-08-10T05:44:26.714Z,1248
2017-08-10T05:45:07.110Z,1240
2017-08-10T05:45:47.537Z,1228
2017-08-10T05:46:27.887Z,1220
2017-08-10T05:47:08.307Z,1216
2017-08-10T05:47:48.699Z,1220
2017-08-10T05:48:29.072Z,1228
2017-08-10T05:49:09.448Z,1236
2017-08-10T05:49:49.853Z,1224
2017-08-10T05:50:30.274Z,1208
2017-08-10T05:51:10.642Z,1172
2017-08-10T05:51:51.054Z,1132
2017-08-10T05:52:31.443Z,1104
2017-08-10T05:53:11.904Z,1092
2017-08-10T05:53:52.311Z,1092
2017-08-10T05:54:32.743Z,1112
2017-08-10T05:55:13.119Z,1140
2017-08-10T05:55:53.490Z,1168
2017-08-10T05:56:33.901Z,1192
2017-08-10T05:57:14.349Z,1212
2017-08-10T05:57:54.731Z,1244
2017-08-10T05:58:35.152Z,1276
2017-08-10T05:59:15.506Z,1312
2017-08-10T05:59:55.963Z,1348
2017-08-10T06:00:36.390Z,1380
2017-08-10T06:01:16.842Z,1420
2017-08-10T06:01:57.276Z,1452
2017-08-10T06:02:37.618Z,1496
2017-08-10T06:03:17.999Z,1532
2017-08-10T06:03:58.433Z,1584
2017-08-10T06:04:54.041Z,1636
2017-08-10T06:05:34.505Z,1728
2017-08-10T06:06:15.031Z,1796
2017-08-10T06:06:55.407Z,1864
2017-08-10T06:07:35.835Z,1924
2017-08-10T06:08:16.328Z,1988
2017-08-10T06:08:56.718Z,2048
2017-08-10T06:09:37.095Z,2112
2017-08-10T06:10:17.513Z,2184
2017-08-10T06:10:57.879Z,2256
2017-08-10T06:11:38.280Z,2344
2017-08-10T06:12:18.694Z,2436
2017-08-10T06:12:59.105Z,2556
2017-08-10T06:13:39.539Z,2676
2017-08-10T06:14:19.990Z,2796
2017-08-10T06:15:00.442Z,2908
2017-08-10T06:15:40.861Z,3004
2017-08-10T06:16:21.223Z,3072
2017-08-10T06:17:01.695Z,3096
2017-08-10T06:17:42.092Z,3080
2017-08-10T06:18:22.485Z,3048
2017-08-10T06:19:02.851Z,3044
2017-08-10T06:19:43.296Z,3040
2017-08-10T06:20:23.758Z,3024
2017-08-10T06:21:04.110Z,2996
2017-08-10T06:21:44.532Z,2944
2017-08-10T06:22:25.049Z,2892
2017-08-10T06:23:05.543Z,2856
2017-08-10T06:23:45.993Z,2832
2017-08-10T06:24:26.423Z,2824
2017-08-10T06:25:06.796Z,2828
2017-08-10T06:25:47.237Z,2868
2017-08-10T06:26:27.611Z,2924
2017-08-10T06:27:08.134Z,2976
2017-08-10T06:27:48.550Z,3028
2017-08-10T06:28:29.061Z,3132
2017-08-10T06:29:09.635Z,3292
2017-08-10T06:29:50.019Z,3432
2017-08-10T06:30:30.762Z,3524
2017-08-10T06:31:11.069Z,3580
2017-08-10T06:31:51.532Z,3624
2017-08-10T06:32:31.936Z,3640
2017-08-10T06:33:12.373Z,3664
2017-08-10T06:33:52.827Z,3656
2017-08-10T06:34:33.213Z,3620
2017-08-10T06:35:13.658Z,3604
2017-08-10T06:35:54.274Z,3584
2017-08-10T06:36:34.733Z,3520
2017-08-10T06:37:15.095Z,3492
2017-08-10T06:37:55.510Z,3528
2017-08-10T06:38:35.932Z,3604
2017-08-10T06:39:16.348Z,3672
2017-08-10T06:39:56.766Z,3736
2017-08-10T06:40:37.113Z,3768
2017-08-10T06:41:17.587Z,3816
2017-08-10T06:41:58.037Z,3872
2017-08-10T06:42:38.518Z,3936
2017-08-10T06:43:18.899Z,3996
2017-08-10T06:43:59.337Z,4052
2017-08-10T06:44:39.885Z,4104
2017-08-10T06:45:20.239Z,4172
2017-08-10T06:46:00.768Z,4176
2017-08-10T06:46:41.283Z,4120
2017-08-10T06:47:21.661Z,4056
2017-08-10T06:48:02.078Z,4048
2017-08-10T06:48:42.591Z,4108
2017-08-10T06:49:23.101Z,4144
2017-08-10T06:50:03.546Z,4144
2017-08-10T06:50:45.449Z,4156
2017-08-10T06:51:25.870Z,4240
2017-08-10T06:52:06.198Z,4496
2017-08-10T06:52:51.562Z,4748
2017-08-10T06:53:31.965Z,4876
2017-08-10T06:54:12.368Z,4968
2017-08-10T06:54:52.735Z,4972
2017-08-10T06:55:33.209Z,4932
2017-08-10T06:56:13.638Z,4908
2017-08-10T06:56:54.056Z,4892
2017-08-10T06:57:34.600Z,4788
2017-08-10T06:58:14.946Z,4732
2017-08-10T06:58:55.320Z,4704
2017-08-10T06:59:35.794Z,4656
2017-08-10T07:00:16.153Z,4620
2017-08-10T07:00:57.921Z,4620
2017-08-10T07:01:38.418Z,4588
2017-08-10T07:02:18.732Z,4468
2017-08-10T07:10:19.564Z,3432
2017-08-10T07:11:01.674Z,3476
2017-08-10T07:11:42.109Z,3492
2017-08-10T07:12:22.568Z,3508
2017-08-10T07:13:02.965Z,3544
2017-08-10T07:13:43.683Z,3592
2017-08-10T07:14:24.042Z,3556
2017-08-10T07:15:04.427Z,3700
2017-08-10T07:15:45.312Z,3932
2017-08-10T07:16:25.714Z,4004
2017-08-10T07:17:06.211Z,3944
2017-08-10T07:17:46.707Z,3892
2017-08-10T07:18:26.982Z,3908
2017-08-10T07:19:07.581Z,3868
2017-08-10T07:19:47.967Z,3780
2017-08-10T07:20:28.424Z,3612
2017-08-10T07:21:09.900Z,3456
2017-08-10T07:21:49.422Z,3384
2017-08-10T07:22:29.865Z,3300
2017-08-10T07:23:10.341Z,3168
2017-08-10T07:23:50.772Z,3076
2017-08-10T07:24:31.167Z,2944
2017-08-10T07:25:11.615Z,2996
2017-08-10T07:25:52.064Z,3128
2017-08-10T07:26:32.466Z,3160
2017-08-10T07:27:13.168Z,3128
2017-08-10T07:27:53.834Z,3104
2017-08-10T07:28:34.416Z,3048
2017-08-10T07:29:15.179Z,3120
2017-08-10T07:29:55.753Z,3096
2017-08-10T07:30:36.267Z,3028
2017-08-10T07:31:17.200Z,2992
2017-08-10T07:31:57.705Z,2964
2017-08-10T07:32:38.228Z,2948
2017-08-10T07:33:18.790Z,2988
2017-08-10T07:33:59.528Z,3032
2017-08-10T07:34:39.832Z,3028
2017-08-10T07:35:20.644Z,3116
2017-08-10T07:36:01.480Z,3244
2017-08-10T07:36:41.918Z,3368
2017-08-10T07:37:22.453Z,3476
2017-08-10T07:38:02.909Z,3436
2017-08-10T07:38:43.343Z,3344
2017-08-10T07:39:23.763Z,3224
2017-08-10T07:40:04.329Z,3232
2017-08-10T07:40:45.149Z,3368
2017-08-10T07:41:28.020Z,3436
2017-08-10T07:42:08.368Z,3620
2017-08-10T07:42:48.894Z,4160
2017-08-10T07:43:29.612Z,4828
2017-08-10T07:44:10.035Z,5132
2017-08-10T07:44:50.547Z,5044
2017-08-10T07:45:31.358Z,5024
2017-08-10T07:46:11.697Z,5104
2017-08-10T07:46:52.059Z,5300
2017-08-10T07:47:32.865Z,5312
2017-08-10T07:48:13.287Z,5308
2017-08-10T07:48:53.693Z,5616
2017-08-10T07:49:34.103Z,5848
2017-08-10T07:50:14.436Z,5680
2017-08-10T07:50:54.908Z,5288
2017-08-10T07:51:35.389Z,4908
2017-08-10T07:52:15.864Z,4700
2017-08-10T07:52:56.472Z,4624
2017-08-10T07:53:36.923Z,4568
2017-08-10T07:54:17.392Z,4508
2017-08-10T07:54:57.835Z,4520
2017-08-10T07:55:38.310Z,4624
2017-08-10T07:56:19.417Z,4704
2017-08-10T07:56:59.781Z,4636
2017-08-10T07:57:40.373Z,4348
2017-08-10T07:58:21.021Z,3900
2017-08-10T07:59:01.471Z,3584
2017-08-10T07:59:42.178Z,3432
2017-08-10T08:00:22.660Z,3332
2017-08-10T08:01:03.194Z,3168
2017-08-10T08:01:43.524Z,3076
2017-08-10T08:02:24.061Z,2996
2017-08-10T08:03:04.537Z,2848
2017-08-10T08:03:45.089Z,2620
2017-08-10T08:04:25.799Z,2448
2017-08-10T08:05:06.189Z,2384
2017-08-10T08:05:46.903Z,2428
2017-08-10T08:06:27.306Z,2440
2017-08-10T08:07:08.015Z,2496
2017-08-10T08:07:48.458Z,2648
2017-08-10T08:08:28.746Z,2836
2017-08-10T08:09:09.180Z,2952
2017-08-10T08:09:49.611Z,3120
2017-08-10T08:10:29.957Z,3388
2017-08-10T08:11:10.797Z,3608
2017-08-10T08:11:51.193Z,3660
2017-08-10T08:12:31.739Z,3592
2017-08-10T08:13:12.327Z,3548
2017-08-10T08:13:52.771Z,3712
2017-08-10T08:14:33.276Z,3928
2017-08-10T08:15:13.716Z,4084
2017-08-10T08:15:54.200Z,4120
2017-08-10T08:16:34.826Z,3932
2017-08-10T08:17:15.150Z,3556
2017-08-10T08:17:55.769Z,3128
2017-08-10T08:18:36.581Z,2820
2017-08-10T08:19:17.107Z,2724
2017-08-10T08:19:57.495Z,2740
2017-08-10T08:20:38.159Z,2804
2017-08-10T08:21:19.107Z,2920
2017-08-10T08:21:59.516Z,2976
2017-08-10T08:22:40.008Z,2960
2017-08-10T08:23:21.852Z,2972
2017-08-10T08:24:02.007Z,3024
2017-08-10T08:24:42.479Z,3084
2017-08-10T08:25:23.425Z,3108
2017-08-10T08:26:03.860Z,3220
2017-08-10T08:26:44.471Z,3536
2017-08-10T08:27:24.884Z,3944
2017-08-10T08:28:05.645Z,4088
2017-08-10T08:28:45.988Z,3964
2017-08-10T08:29:26.404Z,3824
2017-08-10T08:30:07.087Z,3912
2017-08-10T08:30:47.644Z,4196
2017-08-10T08:31:27.973Z,4604
2017-08-10T08:32:08.557Z,5616
2017-08-10T08:32:49.079Z,7416
2017-08-10T08:33:29.635Z,9180
2017-08-10T08:34:10.290Z,9680
2017-08-10T08:34:51.553Z,9612
2017-08-10T08:35:31.910Z,9516
2017-08-10T08:36:12.328Z,9672
2017-08-10T08:36:52.700Z,10076
2017-08-10T08:37:33.160Z,10292
2017-08-10T08:38:13.584Z,10092
2017-08-10T08:38:54.185Z,9852
2017-08-10T08:39:34.769Z,9568
2017-08-10T08:40:15.030Z,9612
2017-08-10T08:40:55.439Z,9848
2017-08-10T08:41:35.844Z,10124
2017-08-10T08:42:16.326Z,10400
2017-08-10T08:42:56.725Z,10604
2017-08-10T08:43:37.197Z,10904
2017-08-10T08:44:17.697Z,11204
2017-08-10T08:44:58.081Z,11028
2017-08-10T08:45:38.569Z,10628
2017-08-10T08:46:18.876Z,10272
2017-08-10T08:46:59.325Z,9836
2017-08-10T08:47:39.731Z,9412
2017-08-10T08:48:20.255Z,9004
2017-08-10T08:49:00.763Z,8700
2017-08-10T08:49:41.136Z,8288
2017-08-10T08:50:21.562Z,7920
2017-08-10T08:51:01.960Z,7784
2017-08-10T08:51:42.410Z,7588
2017-08-10T08:52:22.800Z,7260
2017-08-10T08:53:03.531Z,7092
2017-08-10T08:53:43.992Z,7064
2017-08-10T08:54:24.596Z,7060
2017-08-10T08:55:05.200Z,7004
2017-08-10T08:55:45.665Z,6812
2017-08-10T08:56:26.040Z,6496
2017-08-10T08:57:06.546Z,6352
2017-08-10T08:57:47.068Z,6528
2017-08-10T08:58:27.492Z,6812
2017-08-10T08:59:07.900Z,7104
2017-08-10T08:59:48.389Z,7316
2017-08-10T09:00:28.980Z,7260
2017-08-10T09:01:09.389Z,6936
2017-08-10T09:03:40.709Z,6564
2017-08-10T09:04:21.164Z,7228
2017-08-10T09:05:03.525Z,7600
2017-08-10T09:05:44.028Z,7624
2017-08-10T09:06:24.443Z,7460
2017-08-10T09:07:05.680Z,7340
2017-08-10T09:07:45.253Z,7416
2017-08-10T09:08:25.776Z,7464
2017-08-10T09:09:06.925Z,7336
2017-08-10T09:09:48.552Z,7068
2017-08-10T09:10:29.307Z,6848
2017-08-10T09:11:09.845Z,6960
2017-08-10T09:11:51.029Z,7124
2017-08-10T09:12:32.158Z,7208
2017-08-10T09:13:12.642Z,7196
2017-08-10T09:13:53.849Z,7020
2017-08-10T09:14:34.745Z,6616
2017-08-10T09:15:15.281Z,6360
2017-08-10T09:15:55.816Z,6244
2017-08-10T09:16:36.204Z,6280
2017-08-10T09:17:16.542Z,6396
2017-08-10T09:17:56.940Z,6372
2017-08-10T09:18:37.347Z,6148
2017-08-10T09:19:17.886Z,5832
2017-08-10T09:19:58.335Z,5560
2017-08-10T09:20:39.283Z,5344
2017-08-10T09:21:19.919Z,5496
2017-08-10T09:22:00.284Z,5748
2017-08-10T09:22:40.730Z,5728
2017-08-10T09:23:21.160Z,5472
2017-08-10T09:24:01.591Z,5292
2017-08-10T09:24:42.055Z,5196
2017-08-10T09:25:22.359Z,5232
2017-08-10T09:26:02.787Z,5448
2017-08-10T09:26:43.241Z,5692
2017-08-10T09:27:23.668Z,5972
2017-08-10T09:28:04.080Z,6104
2017-08-10T09:28:44.439Z,6240
2017-08-10T09:29:24.840Z,6364
2017-08-10T09:30:05.265Z,6620
2017-08-10T09:30:45.589Z,6816
2017-08-10T09:31:26.153Z,6820
2017-08-10T09:32:06.636Z,6780
2017-08-10T09:32:47.045Z,6908
2017-08-10T09:33:27.438Z,7212
2017-08-10T09:34:07.759Z,7688
2017-08-10T09:34:48.193Z,8132
2017-08-10T09:35:28.678Z,8468
2017-08-10T09:38:03.992Z,8748
2017-08-10T09:38:44.425Z,8488
2017-08-10T09:39:24.913Z,8228
2017-08-10T09:40:05.297Z,8108
2017-08-10T09:40:45.801Z,8088
2017-08-10T09:41:26.148Z,8040
2017-08-10T09:42:06.570Z,7940
2017-08-10T09:42:47.068Z,7832
2017-08-10T09:43:27.425Z,7596
2017-08-10T09:44:08.059Z,7372
2017-08-10T09:44:48.612Z,7180
2017-08-10T09:45:28.971Z,6960